Swansea, Tasmania

9:03 AM AEDT on April 02, 2015 (GMT +1100)
Launceston | | Change Station
CLOSE
Current Station
Airport
Location: Launceston Airport,
Elevation: 561 ft
Nearby Weather Stations

Elev 561 ft 41.55 °S, 147.21 °E | Updated 8 minutes ago

Rain
Rain
50 °F
Feels Like 50 °F
N
20
Wind Variable Wind from SSE
Gusts 31 mph

Today
High -- | Low -- °F
--% Chance of Precip.
Yesterday
High -- | Low -- °F
Precip. -- in
7:23 AM 6:58 PM
Waxing Gibbous, 94% visible
Pressure 29.92 in
Visibility 6.2 miles
Clouds Mostly Cloudy 2200 ft
Mostly Cloudy 2800 ft
Overcast 3400 ft
Dew Point 46 °F
Humidity 87%
Rainfall 0.00 in
Snow Depth Not available.
UV 0 out of 12
Pollen Not available.
Air Quality Not available.
Flu Activity Not available.
SPECI YMLT 012155Z AUTO 15017G27KT 9999 RA BKN022 BKN028 OVC034 10/08 Q1013

More Conditions Fewer Conditions

Pressure 29.92 in
Visibility 6.2 miles
Clouds Mostly Cloudy 2200 ft
Mostly Cloudy 2800 ft
Overcast 3400 ft
Dew Point 46 °F
Humidity 87%
Rainfall 0.00 in
Snow Depth Not available.
UV 0 out of 12
Pollen Not available.
Air Quality Not available.
Flu Activity Not available.
SPECI YMLT 012155Z AUTO 15017G27KT 9999 RA BKN022 BKN028 OVC034 10/08 Q1013

More Conditions Fewer Conditions

10-Day Weather Forecast

Almanac

Astronomy

Apr. 02, 2015 Rise Set
Actual Time
Civil Twilight
Nautical Twilight
Astronomical Twilight
Moon
Length of Visible Light
Length of Day
Tomorrow will be .
, % of the Moon is Illuminated

Today's Extremes

Country Highs Country Lows

Community

WunderPhotos

Upload Photos

1,810,093 photos uploaded!

WunderBlogs® & News

Nearby

Air Quality

  Air Quality AQ Index Pollutant
Not available.

Snow Depth

Station Depth Elevation

Earthquake Activity

City Distance Mag. Time & Date
Minimum magnitude displayed is 2.5.

Coastal Water Temperatures

Place Temperature

Stations

Nearby Weather Stations

Station Location Temp. Windchill Dew Point Humidity Wind Precip. Elev Updated Type